Copper Center, AK

5:46 AM AKDT on September 04, 2015 (GMT -0800)
Klutina River | | Change Station
CLOSE
Current Station
Personal Weather Station
Location: Copper Center, AK
Elevation: 1100 ft
Nearby Weather Stations

Elev 1100 ft 61.95 °N, 145.32 °W | Updated 10 seconds ago

Light Rain
Light Rain
45.0 °F
Feels Like 42 °F
N
5.0
Wind Variable Wind from ESE
Gusts 11.0 mph

Today
High -- | Low -- °F
--% Chance of Precip.
Yesterday
High -- | Low -- °F
Precip. -- in
6:38 AM 8:40 PM
Waning Gibbous, 59% visible
Pressure 29.89 in
Visibility 10.0 miles
Clouds Overcast 6500 ft
Windchill 42 °F
Dew Point 44 °F
Humidity 97%
Rainfall 0.09 in
Snow Depth Not available.
UV 0 out of 12
Pollen Not available.
Air Quality Not available.
Flu Activity Not available.
METAR PAGK 041253Z AUTO 16006KT 10SM -RA OVC065 07/06 A2986 RMK AO2 SLP120 P0001 T00670056 TSNO
Pressure 29.89 in
Visibility 10.0 miles
Clouds Overcast 6500 ft
Windchill 42 °F
Dew Point 44 °F
Humidity 97%
Rainfall 0.09 in
Snow Depth Not available.
UV 0 out of 12
Pollen Not available.
Air Quality Not available.
Flu Activity Not available.
METAR PAGK 041253Z AUTO 16006KT 10SM -RA OVC065 07/06 A2986 RMK AO2 SLP120 P0001 T00670056 TSNO

10-Day Weather Forecast

×

Almanac

Astronomy

Sep. 04, 2015 Rise Set
Actual Time
Civil Twilight
Nautical Twilight
Astronomical Twilight
Moon
Length of Visible Light
Length of Day
Tomorrow will be .
, % of the Moon is Illuminated

Today's Extremes

State Highs State Lows

Community

WunderPhotos

Upload Photos

1,852,181 photos uploaded!

WunderBlogs® & News

Nearby

Air Quality

  Air Quality AQ Index Pollutant
Not available.

Snow Depth

Station Depth Elevation

Earthquake Activity

City Distance Mag. Time & Date
Minimum magnitude displayed is 2.5.

Coastal Water Temperatures

Place Temperature

Stations

Nearby Weather Stations

Station Location Temp. Windchill Dew Point Humidity Wind Precip. Elev Updated Type